sensor_id;sensor_type;location;lat;lon;timestamp;P1;durP1;ratioP1;P2;durP2;ratioP2
22219;SDS011;11279;48.364;10.904;2023-02-23T00:00:10;23.08;;;14.20;;
22219;SDS011;11279;48.364;10.904;2023-02-23T00:01:21;28.88;;;15.52;;
22219;SDS011;11279;48.364;10.904;2023-02-23T00:02:23;25.35;;;15.43;;
22219;SDS011;11279;48.364;10.904;2023-02-23T00:03:24;24.07;;;14.67;;
22219;SDS011;11279;48.364;10.904;2023-02-23T00:04:24;27.27;;;14.90;;
22219;SDS011;11279;48.364;10.904;2023-02-23T00:05:26;26.63;;;15.03;;
22219;SDS011;11279;48.364;10.904;2023-02-23T00:06:28;30.52;;;15.27;;
22219;SDS011;11279;48.364;10.904;2023-02-23T00:07:29;24.48;;;14.35;;
22219;SDS011;11279;48.364;10.904;2023-02-23T00:08:30;27.67;;;15.27;;
22219;SDS011;11279;48.364;10.904;2023-02-23T00:09:31;26.45;;;14.55;;
22219;SDS011;11279;48.364;10.904;2023-02-23T00:10:37;23.33;;;13.73;;
22219;SDS011;11279;48.364;10.904;2023-02-23T00:11:37;25.10;;;14.00;;
22219;SDS011;11279;48.364;10.904;2023-02-23T00:12:38;30.17;;;15.17;;
22219;SDS011;11279;48.364;10.904;2023-02-23T00:13:39;24.92;;;14.57;;
22219;SDS011;11279;48.364;10.904;2023-02-23T00:14:40;21.98;;;14.60;;
22219;SDS011;11279;48.364;10.904;2023-02-23T00:15:42;24.52;;;14.93;;
22219;SDS011;11279;48.364;10.904;2023-02-23T00:16:43;22.20;;;13.73;;
22219;SDS011;11279;48.364;10.904;2023-02-23T00:17:44;26.10;;;14.57;;
22219;SDS011;11279;48.364;10.904;2023-02-23T00:18:50;29.08;;;14.98;;
22219;SDS011;11279;48.364;10.904;2023-02-23T00:19:55;23.83;;;15.02;;
22219;SDS011;11279;48.364;10.904;2023-02-23T00:20:56;24.90;;;13.90;;
22219;SDS011;11279;48.364;10.904;2023-02-23T00:21:56;28.43;;;15.30;;
22219;SDS011;11279;48.364;10.904;2023-02-23T00:22:58;25.27;;;14.75;;
22219;SDS011;11279;48.364;10.904;2023-02-23T00:25:10;26.02;;;15.30;;
22219;SDS011;11279;48.364;10.904;2023-02-23T00:26:10;23.70;;;14.30;;
22219;SDS011;11279;48.364;10.904;2023-02-23T00:27:12;24.70;;;14.30;;
22219;SDS011;11279;48.364;10.904;2023-02-23T00:28:17;22.85;;;14.43;;
22219;SDS011;11279;48.364;10.904;2023-02-23T00:29:19;24.43;;;14.83;;
22219;SDS011;11279;48.364;10.904;2023-02-23T00:30:21;23.77;;;14.60;;
22219;SDS011;11279;48.364;10.904;2023-02-23T00:31:22;25.23;;;14.83;;
22219;SDS011;11279;48.364;10.904;2023-02-23T00:32:24;25.20;;;14.85;;
22219;SDS011;11279;48.364;10.904;2023-02-23T00:33:25;22.40;;;14.03;;
22219;SDS011;11279;48.364;10.904;2023-02-23T00:34:25;23.30;;;14.53;;
22219;SDS011;11279;48.364;10.904;2023-02-23T00:35:26;23.17;;;15.07;;
22219;SDS011;11279;48.364;10.904;2023-02-23T00:36:33;29.87;;;15.40;;
22219;SDS011;11279;48.364;10.904;2023-02-23T00:37:34;24.50;;;14.13;;
22219;SDS011;11279;48.364;10.904;2023-02-23T00:38:35;22.83;;;14.17;;
22219;SDS011;11279;48.364;10.904;2023-02-23T00:39:36;25.98;;;15.23;;
22219;SDS011;11279;48.364;10.904;2023-02-23T00:40:38;25.93;;;14.93;;
22219;SDS011;11279;48.364;10.904;2023-02-23T00:41:40;26.65;;;15.63;;
22219;SDS011;11279;48.364;10.904;2023-02-23T00:42:44;25.90;;;14.35;;
22219;SDS011;11279;48.364;10.904;2023-02-23T00:43:45;26.30;;;14.98;;
22219;SDS011;11279;48.364;10.904;2023-02-23T00:44:49;29.33;;;15.48;;
22219;SDS011;11279;48.364;10.904;2023-02-23T00:45:53;25.33;;;15.63;;
22219;SDS011;11279;48.364;10.904;2023-02-23T00:46:54;26.38;;;15.38;;
22219;SDS011;11279;48.364;10.904;2023-02-23T00:47:54;26.40;;;15.93;;
22219;SDS011;11279;48.364;10.904;2023-02-23T00:48:56;27.23;;;15.23;;
22219;SDS011;11279;48.364;10.904;2023-02-23T00:49:57;26.45;;;15.88;;
22219;SDS011;11279;48.364;10.904;2023-02-23T00:50:58;27.47;;;16.43;;
22219;SDS011;11279;48.364;10.904;2023-02-23T00:52:02;24.60;;;14.88;;
22219;SDS011;11279;48.364;10.904;2023-02-23T00:53:04;22.40;;;15.30;;
22219;SDS011;11279;48.364;10.904;2023-02-23T00:54:04;26.97;;;16.10;;
22219;SDS011;11279;48.364;10.904;2023-02-23T00:55:09;24.67;;;15.70;;
22219;SDS011;11279;48.364;10.904;2023-02-23T00:56:12;26.33;;;16.27;;
22219;SDS011;11279;48.364;10.904;2023-02-23T00:57:13;24.38;;;14.80;;
22219;SDS011;11279;48.364;10.904;2023-02-23T00:58:13;27.03;;;15.67;;
22219;SDS011;11279;48.364;10.904;2023-02-23T00:59:14;28.17;;;16.70;;
22219;SDS011;11279;48.364;10.904;2023-02-23T01:00:14;24.17;;;15.10;;
22219;SDS011;11279;48.364;10.904;2023-02-23T01:01:17;27.20;;;15.77;;
22219;SDS011;11279;48.364;10.904;2023-02-23T01:02:18;26.17;;;15.83;;
22219;SDS011;11279;48.364;10.904;2023-02-23T01:03:19;24.60;;;16.27;;
22219;SDS011;11279;48.364;10.904;2023-02-23T01:04:19;25.53;;;15.47;;
22219;SDS011;11279;48.364;10.904;2023-02-23T01:05:22;27.13;;;16.25;;
22219;SDS011;11279;48.364;10.904;2023-02-23T01:06:22;26.03;;;14.80;;
22219;SDS011;11279;48.364;10.904;2023-02-23T01:07:22;29.10;;;15.77;;
22219;SDS011;11279;48.364;10.904;2023-02-23T01:08:24;24.50;;;15.13;;
22219;SDS011;11279;48.364;10.904;2023-02-23T01:09:26;25.00;;;15.43;;
22219;SDS011;11279;48.364;10.904;2023-02-23T01:10:27;24.13;;;14.73;;
22219;SDS011;11279;48.364;10.904;2023-02-23T01:11:27;24.83;;;14.67;;
22219;SDS011;11279;48.364;10.904;2023-02-23T01:12:30;25.17;;;15.18;;
22219;SDS011;11279;48.364;10.904;2023-02-23T01:13:30;25.50;;;14.83;;
22219;SDS011;11279;48.364;10.904;2023-02-23T01:14:30;26.20;;;15.73;;
22219;SDS011;11279;48.364;10.904;2023-02-23T01:15:31;25.03;;;14.90;;
22219;SDS011;11279;48.364;10.904;2023-02-23T01:16:32;25.50;;;15.73;;
22219;SDS011;11279;48.364;10.904;2023-02-23T01:17:33;26.17;;;16.55;;
22219;SDS011;11279;48.364;10.904;2023-02-23T01:18:34;25.53;;;14.80;;
22219;SDS011;11279;48.364;10.904;2023-02-23T01:19:34;24.88;;;14.45;;
22219;SDS011;11279;48.364;10.904;2023-02-23T01:20:35;27.03;;;15.13;;
22219;SDS011;11279;48.364;10.904;2023-02-23T01:21:37;23.77;;;15.23;;
22219;SDS011;11279;48.364;10.904;2023-02-23T01:22:41;26.77;;;15.38;;
22219;SDS011;11279;48.364;10.904;2023-02-23T01:23:42;26.80;;;16.00;;
22219;SDS011;11279;48.364;10.904;2023-02-23T01:24:42;25.30;;;15.13;;
22219;SDS011;11279;48.364;10.904;2023-02-23T01:25:43;23.17;;;14.83;;
22219;SDS011;11279;48.364;10.904;2023-02-23T01:26:44;25.10;;;16.02;;
22219;SDS011;11279;48.364;10.904;2023-02-23T01:27:45;27.37;;;15.60;;
22219;SDS011;11279;48.364;10.904;2023-02-23T01:28:48;27.13;;;15.83;;
22219;SDS011;11279;48.364;10.904;2023-02-23T01:29:49;27.80;;;16.50;;
22219;SDS011;11279;48.364;10.904;2023-02-23T01:30:50;28.30;;;16.93;;
22219;SDS011;11279;48.364;10.904;2023-02-23T01:31:50;27.20;;;15.70;;
22219;SDS011;11279;48.364;10.904;2023-02-23T01:32:51;23.63;;;15.23;;
22219;SDS011;11279;48.364;10.904;2023-02-23T01:33:54;24.57;;;15.17;;
22219;SDS011;11279;48.364;10.904;2023-02-23T01:34:55;24.48;;;15.40;;
22219;SDS011;11279;48.364;10.904;2023-02-23T01:35:57;31.23;;;15.30;;
22219;SDS011;11279;48.364;10.904;2023-02-23T01:36:58;30.13;;;15.55;;
22219;SDS011;11279;48.364;10.904;2023-02-23T01:37:58;28.63;;;15.53;;
22219;SDS011;11279;48.364;10.904;2023-02-23T01:38:59;27.63;;;16.10;;
22219;SDS011;11279;48.364;10.904;2023-02-23T01:39:59;27.23;;;16.00;;
22219;SDS011;11279;48.364;10.904;2023-02-23T01:41:00;26.43;;;16.43;;
22219;SDS011;11279;48.364;10.904;2023-02-23T01:42:00;26.93;;;15.47;;
22219;SDS011;11279;48.364;10.904;2023-02-23T01:46:31;25.48;;;15.77;;
22219;SDS011;11279;48.364;10.904;2023-02-23T01:47:36;26.90;;;16.60;;
22219;SDS011;11279;48.364;10.904;2023-02-23T01:48:36;28.37;;;16.77;;
22219;SDS011;11279;48.364;10.904;2023-02-23T01:49:38;28.80;;;16.63;;
22219;SDS011;11279;48.364;10.904;2023-02-23T01:50:53;28.30;;;16.80;;
22219;SDS011;11279;48.364;10.904;2023-02-23T01:53:05;27.92;;;15.55;;
22219;SDS011;11279;48.364;10.904;2023-02-23T01:54:08;25.57;;;15.53;;
22219;SDS011;11279;48.364;10.904;2023-02-23T01:55:10;27.42;;;16.48;;
22219;SDS011;11279;48.364;10.904;2023-02-23T01:56:16;28.55;;;17.30;;
22219;SDS011;11279;48.364;10.904;2023-02-23T01:57:21;28.63;;;16.15;;
22219;SDS011;11279;48.364;10.904;2023-02-23T01:58:23;30.33;;;17.05;;
22219;SDS011;11279;48.364;10.904;2023-02-23T01:59:34;27.75;;;17.33;;
22219;SDS011;11279;48.364;10.904;2023-02-23T02:00:37;27.80;;;17.02;;
22219;SDS011;11279;48.364;10.904;2023-02-23T02:01:38;28.47;;;16.67;;
22219;SDS011;11279;48.364;10.904;2023-02-23T02:02:41;31.20;;;16.98;;
22219;SDS011;11279;48.364;10.904;2023-02-23T02:03:46;27.80;;;16.60;;
22219;SDS011;11279;48.364;10.904;2023-02-23T02:04:49;28.00;;;16.40;;
22219;SDS011;11279;48.364;10.904;2023-02-23T02:05:51;28.40;;;16.08;;
22219;SDS011;11279;48.364;10.904;2023-02-23T02:06:52;26.27;;;16.13;;
22219;SDS011;11279;48.364;10.904;2023-02-23T02:07:55;27.42;;;16.63;;
22219;SDS011;11279;48.364;10.904;2023-02-23T02:08:59;26.67;;;16.50;;
22219;SDS011;11279;48.364;10.904;2023-02-23T02:10:05;27.23;;;16.73;;
22219;SDS011;11279;48.364;10.904;2023-02-23T02:11:13;29.23;;;17.55;;
22219;SDS011;11279;48.364;10.904;2023-02-23T02:12:35;26.65;;;16.48;;
22219;SDS011;11279;48.364;10.904;2023-02-23T02:13:43;28.48;;;16.95;;
22219;SDS011;11279;48.364;10.904;2023-02-23T02:14:43;28.97;;;15.93;;
22219;SDS011;11279;48.364;10.904;2023-02-23T02:15:58;25.15;;;16.20;;
22219;SDS011;11279;48.364;10.904;2023-02-23T02:18:25;25.00;;;15.50;;
22219;SDS011;11279;48.364;10.904;2023-02-23T02:22:13;27.58;;;16.38;;
22219;SDS011;11279;48.364;10.904;2023-02-23T02:29:22;29.77;;;16.55;;
22219;SDS011;11279;48.364;10.904;2023-02-23T02:33:21;28.05;;;16.23;;
22219;SDS011;11279;48.364;10.904;2023-02-23T02:37:37;28.88;;;16.67;;
22219;SDS011;11279;48.364;10.904;2023-02-23T02:43:15;27.40;;;17.15;;
22219;SDS011;11279;48.364;10.904;2023-02-23T02:45:05;26.88;;;15.93;;
22219;SDS011;11279;48.364;10.904;2023-02-23T02:46:28;30.42;;;17.25;;
22219;SDS011;11279;48.364;10.904;2023-02-23T02:47:33;30.05;;;17.05;;
22219;SDS011;11279;48.364;10.904;2023-02-23T02:48:57;29.95;;;16.73;;
22219;SDS011;11279;48.364;10.904;2023-02-23T02:50:08;27.20;;;17.27;;
22219;SDS011;11279;48.364;10.904;2023-02-23T02:51:31;32.60;;;17.73;;
22219;SDS011;11279;48.364;10.904;2023-02-23T02:52:50;27.08;;;15.80;;
22219;SDS011;11279;48.364;10.904;2023-02-23T02:54:01;28.83;;;17.60;;
22219;SDS011;11279;48.364;10.904;2023-02-23T02:55:08;26.80;;;17.35;;
22219;SDS011;11279;48.364;10.904;2023-02-23T02:56:14;28.58;;;16.85;;
22219;SDS011;11279;48.364;10.904;2023-02-23T02:57:19;28.65;;;16.95;;
22219;SDS011;11279;48.364;10.904;2023-02-23T02:58:23;28.30;;;16.83;;
22219;SDS011;11279;48.364;10.904;2023-02-23T02:59:24;26.90;;;16.52;;
22219;SDS011;11279;48.364;10.904;2023-02-23T03:00:45;29.13;;;17.65;;
22219;SDS011;11279;48.364;10.904;2023-02-23T03:02:05;32.45;;;17.45;;
22219;SDS011;11279;48.364;10.904;2023-02-23T03:03:28;28.58;;;17.35;;
22219;SDS011;11279;48.364;10.904;2023-02-23T03:04:50;29.02;;;16.88;;
22219;SDS011;11279;48.364;10.904;2023-02-23T03:06:09;29.30;;;17.50;;
22219;SDS011;11279;48.364;10.904;2023-02-23T03:07:52;28.48;;;17.48;;
22219;SDS011;11279;48.364;10.904;2023-02-23T03:09:32;27.63;;;17.23;;
22219;SDS011;11279;48.364;10.904;2023-02-23T03:10:59;30.75;;;17.10;;
22219;SDS011;11279;48.364;10.904;2023-02-23T03:15:49;32.70;;;18.13;;
22219;SDS011;11279;48.364;10.904;2023-02-23T03:18:54;29.75;;;18.02;;
22219;SDS011;11279;48.364;10.904;2023-02-23T03:23:46;31.42;;;17.58;;
22219;SDS011;11279;48.364;10.904;2023-02-23T03:25:28;30.63;;;17.42;;
22219;SDS011;11279;48.364;10.904;2023-02-23T03:26:54;31.83;;;17.27;;
22219;SDS011;11279;48.364;10.904;2023-02-23T03:28:18;30.27;;;18.20;;
22219;SDS011;11279;48.364;10.904;2023-02-23T03:29:45;33.70;;;18.48;;
22219;SDS011;11279;48.364;10.904;2023-02-23T03:31:21;32.58;;;17.52;;
22219;SDS011;11279;48.364;10.904;2023-02-23T03:32:47;30.95;;;17.13;;
22219;SDS011;11279;48.364;10.904;2023-02-23T03:34:09;30.88;;;17.73;;
22219;SDS011;11279;48.364;10.904;2023-02-23T03:37:10;29.30;;;17.10;;
22219;SDS011;11279;48.364;10.904;2023-02-23T03:40:08;35.40;;;18.45;;
22219;SDS011;11279;48.364;10.904;2023-02-23T03:41:30;29.30;;;17.98;;
22219;SDS011;11279;48.364;10.904;2023-02-23T03:42:50;29.67;;;17.55;;
22219;SDS011;11279;48.364;10.904;2023-02-23T03:44:16;30.50;;;17.30;;
22219;SDS011;11279;48.364;10.904;2023-02-23T03:45:40;30.40;;;18.02;;
22219;SDS011;11279;48.364;10.904;2023-02-23T03:47:02;33.90;;;18.33;;
22219;SDS011;11279;48.364;10.904;2023-02-23T03:48:22;34.70;;;18.08;;
22219;SDS011;11279;48.364;10.904;2023-02-23T03:49:42;31.95;;;17.50;;
22219;SDS011;11279;48.364;10.904;2023-02-23T03:51:02;28.88;;;18.13;;
22219;SDS011;11279;48.364;10.904;2023-02-23T03:52:25;30.38;;;18.55;;
22219;SDS011;11279;48.364;10.904;2023-02-23T03:53:53;33.70;;;19.80;;
22219;SDS011;11279;48.364;10.904;2023-02-23T03:55:20;33.15;;;18.35;;
22219;SDS011;11279;48.364;10.904;2023-02-23T03:56:42;30.27;;;17.90;;
22219;SDS011;11279;48.364;10.904;2023-02-23T03:58:03;31.65;;;17.38;;
22219;SDS011;11279;48.364;10.904;2023-02-23T03:59:26;31.63;;;18.83;;
22219;SDS011;11279;48.364;10.904;2023-02-23T04:00:48;30.08;;;17.65;;
22219;SDS011;11279;48.364;10.904;2023-02-23T04:02:09;32.40;;;17.55;;
22219;SDS011;11279;48.364;10.904;2023-02-23T04:03:29;31.23;;;17.77;;
22219;SDS011;11279;48.364;10.904;2023-02-23T04:04:49;29.48;;;17.80;;
22219;SDS011;11279;48.364;10.904;2023-02-23T04:06:10;30.83;;;18.20;;
22219;SDS011;11279;48.364;10.904;2023-02-23T04:07:30;30.25;;;18.20;;
22219;SDS011;11279;48.364;10.904;2023-02-23T04:08:51;30.05;;;18.63;;
22219;SDS011;11279;48.364;10.904;2023-02-23T04:10:10;37.63;;;19.73;;
22219;SDS011;11279;48.364;10.904;2023-02-23T04:11:32;34.30;;;18.60;;
22219;SDS011;11279;48.364;10.904;2023-02-23T04:15:54;31.05;;;18.80;;
22219;SDS011;11279;48.364;10.904;2023-02-23T04:16:56;34.95;;;18.67;;
22219;SDS011;11279;48.364;10.904;2023-02-23T04:17:57;29.83;;;18.37;;
22219;SDS011;11279;48.364;10.904;2023-02-23T04:18:57;34.13;;;19.27;;
22219;SDS011;11279;48.364;10.904;2023-02-23T04:19:58;30.03;;;18.60;;
22219;SDS011;11279;48.364;10.904;2023-02-23T04:20:59;31.70;;;18.30;;
22219;SDS011;11279;48.364;10.904;2023-02-23T04:22:00;34.35;;;19.60;;
22219;SDS011;11279;48.364;10.904;2023-02-23T04:23:00;36.87;;;19.77;;
22219;SDS011;11279;48.364;10.904;2023-02-23T04:24:01;35.17;;;19.27;;
22219;SDS011;11279;48.364;10.904;2023-02-23T04:25:01;31.17;;;19.00;;
22219;SDS011;11279;48.364;10.904;2023-02-23T04:26:02;33.20;;;19.53;;
22219;SDS011;11279;48.364;10.904;2023-02-23T04:27:04;32.13;;;19.85;;
22219;SDS011;11279;48.364;10.904;2023-02-23T04:28:05;31.05;;;18.38;;
22219;SDS011;11279;48.364;10.904;2023-02-23T04:29:05;30.30;;;19.10;;
22219;SDS011;11279;48.364;10.904;2023-02-23T04:30:06;30.77;;;19.60;;
22219;SDS011;11279;48.364;10.904;2023-02-23T04:31:10;34.47;;;19.50;;
22219;SDS011;11279;48.364;10.904;2023-02-23T04:32:15;29.23;;;18.07;;
22219;SDS011;11279;48.364;10.904;2023-02-23T04:33:16;31.98;;;19.13;;
22219;SDS011;11279;48.364;10.904;2023-02-23T04:34:17;33.37;;;20.03;;
22219;SDS011;11279;48.364;10.904;2023-02-23T04:35:17;30.83;;;19.03;;
22219;SDS011;11279;48.364;10.904;2023-02-23T04:36:17;29.70;;;18.80;;
22219;SDS011;11279;48.364;10.904;2023-02-23T04:37:18;33.40;;;18.57;;
22219;SDS011;11279;48.364;10.904;2023-02-23T04:38:19;33.13;;;19.97;;
22219;SDS011;11279;48.364;10.904;2023-02-23T04:39:19;33.05;;;19.35;;
22219;SDS011;11279;48.364;10.904;2023-02-23T04:40:20;36.63;;;20.13;;
22219;SDS011;11279;48.364;10.904;2023-02-23T04:41:21;34.17;;;20.07;;
22219;SDS011;11279;48.364;10.904;2023-02-23T04:42:21;32.23;;;19.40;;
22219;SDS011;11279;48.364;10.904;2023-02-23T04:43:22;32.60;;;18.90;;
22219;SDS011;11279;48.364;10.904;2023-02-23T04:44:22;32.37;;;20.13;;
22219;SDS011;11279;48.364;10.904;2023-02-23T04:45:23;34.27;;;20.73;;
22219;SDS011;11279;48.364;10.904;2023-02-23T04:46:24;36.63;;;20.40;;
22219;SDS011;11279;48.364;10.904;2023-02-23T04:47:24;36.77;;;20.73;;
22219;SDS011;11279;48.364;10.904;2023-02-23T04:48:25;30.93;;;19.77;;
22219;SDS011;11279;48.364;10.904;2023-02-23T04:49:26;31.17;;;19.55;;
22219;SDS011;11279;48.364;10.904;2023-02-23T04:50:26;33.03;;;18.60;;
22219;SDS011;11279;48.364;10.904;2023-02-23T04:51:27;31.33;;;18.57;;
22219;SDS011;11279;48.364;10.904;2023-02-23T04:52:31;31.63;;;20.02;;
22219;SDS011;11279;48.364;10.904;2023-02-23T04:53:31;32.37;;;19.53;;
22219;SDS011;11279;48.364;10.904;2023-02-23T04:54:32;32.07;;;18.97;;
22219;SDS011;11279;48.364;10.904;2023-02-23T04:55:32;33.57;;;20.03;;
22219;SDS011;11279;48.364;10.904;2023-02-23T04:56:33;35.30;;;20.30;;
22219;SDS011;11279;48.364;10.904;2023-02-23T04:57:33;35.27;;;19.07;;
22219;SDS011;11279;48.364;10.904;2023-02-23T04:58:34;29.87;;;18.93;;
22219;SDS011;11279;48.364;10.904;2023-02-23T04:59:34;33.07;;;19.27;;
22219;SDS011;11279;48.364;10.904;2023-02-23T05:00:35;34.23;;;19.23;;
22219;SDS011;11279;48.364;10.904;2023-02-23T05:01:38;30.45;;;19.20;;
22219;SDS011;11279;48.364;10.904;2023-02-23T05:02:38;30.90;;;18.37;;
22219;SDS011;11279;48.364;10.904;2023-02-23T05:03:39;31.77;;;20.17;;
22219;SDS011;11279;48.364;10.904;2023-02-23T05:04:39;30.67;;;19.57;;
22219;SDS011;11279;48.364;10.904;2023-02-23T05:05:40;29.63;;;19.30;;
22219;SDS011;11279;48.364;10.904;2023-02-23T05:06:40;33.13;;;20.17;;
22219;SDS011;11279;48.364;10.904;2023-02-23T05:07:41;31.10;;;19.27;;
22219;SDS011;11279;48.364;10.904;2023-02-23T05:08:43;31.27;;;19.45;;
22219;SDS011;11279;48.364;10.904;2023-02-23T05:09:43;34.10;;;19.67;;
22219;SDS011;11279;48.364;10.904;2023-02-23T05:10:44;32.33;;;19.00;;
22219;SDS011;11279;48.364;10.904;2023-02-23T05:11:45;35.13;;;19.67;;
22219;SDS011;11279;48.364;10.904;2023-02-23T05:12:45;38.43;;;21.40;;
22219;SDS011;11279;48.364;10.904;2023-02-23T05:13:46;32.73;;;20.33;;
22219;SDS011;11279;48.364;10.904;2023-02-23T05:14:46;31.83;;;18.17;;
22219;SDS011;11279;48.364;10.904;2023-02-23T05:15:47;31.00;;;20.97;;
22219;SDS011;11279;48.364;10.904;2023-02-23T05:16:47;32.83;;;19.67;;
22219;SDS011;11279;48.364;10.904;2023-02-23T05:17:48;32.28;;;19.75;;
22219;SDS011;11279;48.364;10.904;2023-02-23T05:18:49;32.30;;;19.03;;
22219;SDS011;11279;48.364;10.904;2023-02-23T05:19:49;32.67;;;19.53;;
22219;SDS011;11279;48.364;10.904;2023-02-23T05:20:51;31.42;;;19.58;;
22219;SDS011;11279;48.364;10.904;2023-02-23T05:21:51;32.05;;;20.35;;
22219;SDS011;11279;48.364;10.904;2023-02-23T05:22:52;31.67;;;20.33;;
22219;SDS011;11279;48.364;10.904;2023-02-23T05:23:52;35.63;;;20.23;;
22219;SDS011;11279;48.364;10.904;2023-02-23T05:24:53;35.60;;;20.07;;
22219;SDS011;11279;48.364;10.904;2023-02-23T05:25:53;37.03;;;19.77;;
22219;SDS011;11279;48.364;10.904;2023-02-23T05:26:58;31.02;;;19.70;;
22219;SDS011;11279;48.364;10.904;2023-02-23T05:27:59;34.70;;;21.40;;
22219;SDS011;11279;48.364;10.904;2023-02-23T05:28:59;35.33;;;19.90;;
22219;SDS011;11279;48.364;10.904;2023-02-23T05:30:00;37.00;;;19.97;;
22219;SDS011;11279;48.364;10.904;2023-02-23T05:31:00;32.90;;;19.90;;
22219;SDS011;11279;48.364;10.904;2023-02-23T05:32:02;35.60;;;19.55;;
22219;SDS011;11279;48.364;10.904;2023-02-23T05:33:03;30.97;;;19.63;;
22219;SDS011;11279;48.364;10.904;2023-02-23T05:34:03;38.17;;;20.07;;
22219;SDS011;11279;48.364;10.904;2023-02-23T05:35:04;36.07;;;20.43;;
22219;SDS011;11279;48.364;10.904;2023-02-23T05:36:04;36.77;;;20.97;;
22219;SDS011;11279;48.364;10.904;2023-02-23T05:37:05;32.83;;;20.60;;
22219;SDS011;11279;48.364;10.904;2023-02-23T05:38:06;31.30;;;19.47;;
22219;SDS011;11279;48.364;10.904;2023-02-23T05:39:06;32.90;;;20.03;;
22219;SDS011;11279;48.364;10.904;2023-02-23T05:40:07;31.80;;;19.47;;
22219;SDS011;11279;48.364;10.904;2023-02-23T05:41:08;34.22;;;19.90;;
22219;SDS011;11279;48.364;10.904;2023-02-23T05:42:10;36.50;;;20.45;;
22219;SDS011;11279;48.364;10.904;2023-02-23T05:43:10;33.40;;;20.60;;
22219;SDS011;11279;48.364;10.904;2023-02-23T05:44:11;33.20;;;21.03;;
22219;SDS011;11279;48.364;10.904;2023-02-23T05:45:11;30.27;;;19.57;;
22219;SDS011;11279;48.364;10.904;2023-02-23T05:46:14;34.33;;;20.43;;
22219;SDS011;11279;48.364;10.904;2023-02-23T05:47:16;31.63;;;20.08;;
22219;SDS011;11279;48.364;10.904;2023-02-23T05:48:16;35.50;;;21.37;;
22219;SDS011;11279;48.364;10.904;2023-02-23T05:49:16;33.07;;;20.73;;
22219;SDS011;11279;48.364;10.904;2023-02-23T05:50:17;34.83;;;19.80;;
22219;SDS011;11279;48.364;10.904;2023-02-23T05:51:17;34.77;;;20.17;;
22219;SDS011;11279;48.364;10.904;2023-02-23T05:52:18;34.97;;;20.63;;
22219;SDS011;11279;48.364;10.904;2023-02-23T05:53:18;35.03;;;20.90;;
22219;SDS011;11279;48.364;10.904;2023-02-23T05:54:19;35.17;;;20.43;;
22219;SDS011;11279;48.364;10.904;2023-02-23T05:55:19;34.53;;;21.07;;
22219;SDS011;11279;48.364;10.904;2023-02-23T05:56:20;34.57;;;20.33;;
22219;SDS011;11279;48.364;10.904;2023-02-23T05:57:20;32.13;;;19.97;;
22219;SDS011;11279;48.364;10.904;2023-02-23T05:58:21;35.93;;;20.27;;
22219;SDS011;11279;48.364;10.904;2023-02-23T05:59:22;36.13;;;20.90;;
22219;SDS011;11279;48.364;10.904;2023-02-23T06:00:22;33.33;;;21.43;;
22219;SDS011;11279;48.364;10.904;2023-02-23T06:01:23;37.53;;;22.13;;
22219;SDS011;11279;48.364;10.904;2023-02-23T06:02:25;34.97;;;20.35;;
22219;SDS011;11279;48.364;10.904;2023-02-23T06:03:26;36.57;;;20.10;;
22219;SDS011;11279;48.364;10.904;2023-02-23T06:04:26;35.47;;;20.90;;
22219;SDS011;11279;48.364;10.904;2023-02-23T06:05:27;36.03;;;21.47;;
22219;SDS011;11279;48.364;10.904;2023-02-23T06:06:27;37.77;;;21.17;;
22219;SDS011;11279;48.364;10.904;2023-02-23T06:07:28;37.43;;;20.97;;
22219;SDS011;11279;48.364;10.904;2023-02-23T06:08:28;36.93;;;21.80;;
22219;SDS011;11279;48.364;10.904;2023-02-23T06:09:29;35.60;;;20.57;;
22219;SDS011;11279;48.364;10.904;2023-02-23T06:10:29;32.97;;;20.67;;
22219;SDS011;11279;48.364;10.904;2023-02-23T06:11:29;35.13;;;21.50;;
22219;SDS011;11279;48.364;10.904;2023-02-23T06:12:30;36.92;;;22.15;;
22219;SDS011;11279;48.364;10.904;2023-02-23T06:13:31;37.00;;;22.17;;
22219;SDS011;11279;48.364;10.904;2023-02-23T06:14:31;37.27;;;21.77;;
22219;SDS011;11279;48.364;10.904;2023-02-23T06:15:32;33.67;;;21.73;;
22219;SDS011;11279;48.364;10.904;2023-02-23T06:16:32;35.10;;;22.77;;
22219;SDS011;11279;48.364;10.904;2023-02-23T06:17:33;35.40;;;21.50;;
22219;SDS011;11279;48.364;10.904;2023-02-23T06:18:34;35.88;;;21.95;;
22219;SDS011;11279;48.364;10.904;2023-02-23T06:19:34;33.47;;;20.87;;
22219;SDS011;11279;48.364;10.904;2023-02-23T06:20:35;35.00;;;22.37;;
22219;SDS011;11279;48.364;10.904;2023-02-23T06:21:36;38.13;;;22.70;;
22219;SDS011;11279;48.364;10.904;2023-02-23T06:22:37;40.93;;;23.83;;
22219;SDS011;11279;48.364;10.904;2023-02-23T06:23:37;35.87;;;21.27;;
22219;SDS011;11279;48.364;10.904;2023-02-23T06:24:38;38.67;;;21.93;;
22219;SDS011;11279;48.364;10.904;2023-02-23T06:25:38;35.77;;;22.17;;
22219;SDS011;11279;48.364;10.904;2023-02-23T06:26:39;36.15;;;22.27;;
22219;SDS011;11279;48.364;10.904;2023-02-23T06:27:40;37.47;;;21.37;;
22219;SDS011;11279;48.364;10.904;2023-02-23T06:28:41;35.75;;;22.40;;
22219;SDS011;11279;48.364;10.904;2023-02-23T06:29:41;39.87;;;24.17;;
22219;SDS011;11279;48.364;10.904;2023-02-23T06:30:42;41.47;;;22.60;;
22219;SDS011;11279;48.364;10.904;2023-02-23T06:31:43;35.97;;;22.67;;
22219;SDS011;11279;48.364;10.904;2023-02-23T06:32:44;39.43;;;23.80;;
22219;SDS011;11279;48.364;10.904;2023-02-23T06:33:44;36.33;;;23.17;;
22219;SDS011;11279;48.364;10.904;2023-02-23T06:34:45;37.50;;;22.80;;
22219;SDS011;11279;48.364;10.904;2023-02-23T06:35:45;37.67;;;23.20;;
22219;SDS011;11279;48.364;10.904;2023-02-23T06:36:45;38.90;;;23.20;;
22219;SDS011;11279;48.364;10.904;2023-02-23T06:37:46;38.13;;;23.47;;
22219;SDS011;11279;48.364;10.904;2023-02-23T06:38:46;36.40;;;21.67;;
22219;SDS011;11279;48.364;10.904;2023-02-23T06:39:47;37.30;;;23.20;;
22219;SDS011;11279;48.364;10.904;2023-02-23T06:40:47;37.87;;;23.03;;
22219;SDS011;11279;48.364;10.904;2023-02-23T06:41:48;34.47;;;22.63;;
22219;SDS011;11279;48.364;10.904;2023-02-23T06:42:48;35.57;;;21.87;;
22219;SDS011;11279;48.364;10.904;2023-02-23T06:43:49;39.90;;;22.03;;
22219;SDS011;11279;48.364;10.904;2023-02-23T06:44:51;38.25;;;22.73;;
22219;SDS011;11279;48.364;10.904;2023-02-23T06:45:51;36.13;;;22.50;;
22219;SDS011;11279;48.364;10.904;2023-02-23T06:46:51;39.37;;;23.80;;
22219;SDS011;11279;48.364;10.904;2023-02-23T06:47:52;39.13;;;23.27;;
22219;SDS011;11279;48.364;10.904;2023-02-23T06:48:53;40.50;;;23.33;;
22219;SDS011;11279;48.364;10.904;2023-02-23T06:49:54;37.25;;;23.85;;
22219;SDS011;11279;48.364;10.904;2023-02-23T06:50:56;42.50;;;23.30;;
22219;SDS011;11279;48.364;10.904;2023-02-23T06:51:58;34.72;;;22.42;;
22219;SDS011;11279;48.364;10.904;2023-02-23T06:52:58;37.37;;;22.63;;
22219;SDS011;11279;48.364;10.904;2023-02-23T06:53:59;38.30;;;22.40;;
22219;SDS011;11279;48.364;10.904;2023-02-23T06:54:59;37.60;;;23.20;;